createdAt,value
2023-02-18T00:01:59.702Z,102277.00
2023-02-18T00:07:03.190Z,102279.53
2023-02-18T00:12:06.484Z,102279.63
2023-02-18T00:17:10.857Z,102259.47
2023-02-18T00:22:13.820Z,102257.03
2023-02-18T00:27:17.398Z,102259.66
2023-02-18T00:32:21.812Z,102253.06
2023-02-18T00:37:24.814Z,102239.44
2023-02-18T00:42:29.247Z,102230.97
2023-02-18T00:47:33.665Z,102229.53
2023-02-18T00:52:37.333Z,102206.31
2023-02-18T00:57:40.309Z,102210.41
2023-02-18T01:02:44.703Z,102198.31
2023-02-18T01:07:47.787Z,102205.84
2023-02-18T01:12:50.894Z,102198.13
2023-02-18T01:17:55.377Z,102199.16
2023-02-18T01:22:58.373Z,102195.06
2023-02-18T01:28:01.394Z,102201.50
2023-02-18T01:33:06.259Z,102190.94
2023-02-18T01:38:09.886Z,102193.22
2023-02-18T01:43:14.001Z,102190.72
2023-02-18T01:48:21.044Z,102173.19
2023-02-18T01:53:29.213Z,102186.69
2023-02-18T01:58:32.529Z,102186.78
2023-02-18T02:03:36.854Z,102169.38
2023-02-18T02:08:41.314Z,102168.56
2023-02-18T02:14:12.083Z,102162.22
2023-02-18T02:19:45.063Z,102148.84
2023-02-18T02:25:20.753Z,102146.94
2023-02-18T02:31:05.154Z,102121.41
2023-02-18T02:36:15.117Z,102113.53
2023-02-18T02:41:28.859Z,102095.94
2023-02-18T02:46:39.800Z,102096.06
2023-02-18T02:51:51.055Z,102076.66
2023-02-18T02:57:07.331Z,102057.47
2023-02-18T03:02:26.447Z,102032.94
2023-02-18T03:07:47.080Z,102031.22
2023-02-18T03:13:01.835Z,102023.25
2023-02-18T03:18:13.356Z,102019.19
2023-02-18T03:23:25.338Z,102015.72
2023-02-18T03:28:32.491Z,102014.75
2023-02-18T03:33:42.008Z,102009.69
2023-02-18T03:38:55.219Z,102009.69
2023-02-18T03:44:02.124Z,101994.84
2023-02-18T03:49:05.558Z,101987.75
2023-02-18T03:54:10.149Z,101973.81
2023-02-18T03:59:14.412Z,101966.84
2023-02-18T04:04:17.486Z,101965.22
2023-02-18T04:09:21.908Z,101964.31
2023-02-18T04:14:25.153Z,101947.75
2023-02-18T04:19:28.262Z,101954.78
2023-02-18T04:24:32.596Z,101949.53
2023-02-18T04:29:35.671Z,101931.47
2023-02-18T04:34:38.640Z,101952.09
2023-02-18T04:39:43.445Z,101945.75
2023-02-18T04:44:47.629Z,101940.50
2023-02-18T04:49:50.755Z,101940.31
2023-02-18T04:54:55.309Z,101940.16
2023-02-18T04:59:58.354Z,101935.47
2023-02-18T05:05:01.342Z,101925.50
2023-02-18T05:10:07.109Z,101920.25
2023-02-18T05:15:10.660Z,101932.16
2023-02-18T05:20:14.175Z,101925.72
2023-02-18T05:25:18.926Z,101919.25
2023-02-18T05:30:22.384Z,101927.91
2023-02-18T05:35:25.621Z,101901.50
2023-02-18T05:40:29.975Z,101910.22
2023-02-18T05:45:33.300Z,101903.22
2023-02-18T05:50:36.792Z,101896.19
2023-02-18T05:55:41.976Z,101898.63
2023-02-18T06:00:44.959Z,101868.78
2023-02-18T06:05:51.206Z,101881.06
2023-02-18T06:10:56.085Z,101881.97
2023-02-18T06:15:59.158Z,101877.63
2023-02-18T06:21:02.326Z,101866.16
2023-02-18T06:26:07.421Z,101865.06
2023-02-18T06:31:10.665Z,101867.03
2023-02-18T06:36:13.923Z,101855.56
2023-02-18T06:41:18.271Z,101873.84
2023-02-18T06:46:21.279Z,101873.69
2023-02-18T06:51:24.405Z,101873.50
2023-02-18T06:56:30.907Z,101863.72
2023-02-18T07:01:34.128Z,101857.41
2023-02-18T07:06:37.090Z,101873.88
2023-02-18T07:11:41.475Z,101872.97
2023-02-18T07:16:44.568Z,101888.63
2023-02-18T07:21:47.719Z,101880.56
2023-02-18T07:26:52.075Z,101875.31
2023-02-18T07:31:55.335Z,101874.59
2023-02-18T07:36:58.335Z,101883.56
2023-02-18T07:42:03.510Z,101879.84
2023-02-18T07:47:10.157Z,101875.91
2023-02-18T07:52:13.363Z,101863.78
2023-02-18T07:57:17.740Z,101888.56
2023-02-18T08:02:23.584Z,101881.94
2023-02-18T08:07:26.648Z,101877.78
2023-02-18T08:12:30.987Z,101892.69
2023-02-18T08:17:34.014Z,101878.03
2023-02-18T08:22:37.055Z,101895.84
2023-02-18T08:27:41.538Z,101903.72
2023-02-18T08:32:44.615Z,101899.09
2023-02-18T08:37:52.179Z,101905.00
2023-02-18T08:42:58.165Z,101901.41
2023-02-18T08:48:19.442Z,101888.53
2023-02-18T08:53:23.877Z,101904.03
2023-02-18T08:58:28.267Z,101861.75
2023-02-18T09:03:31.359Z,101893.47
2023-02-18T09:08:34.449Z,101898.16
2023-02-18T09:13:38.853Z,101883.22
2023-02-18T09:18:42.578Z,101912.84
2023-02-18T09:23:45.792Z,101940.88
2023-02-18T09:28:50.319Z,101919.59
2023-02-18T09:33:55.798Z,101925.25
2023-02-18T09:38:59.110Z,101917.78
2023-02-18T09:44:06.051Z,101916.41
2023-02-18T09:49:15.594Z,101932.31
2023-02-18T09:54:21.357Z,101918.03
2023-02-18T09:59:27.832Z,101958.50
2023-02-18T10:04:37.897Z,101943.53
2023-02-18T10:09:42.238Z,101933.31
2023-02-18T10:14:50.508Z,101937.56
2023-02-18T10:19:55.898Z,101950.56
2023-02-18T10:25:01.486Z,101956.47
2023-02-18T10:30:22.525Z,101957.78
2023-02-18T10:35:32.519Z,101963.03
2023-02-18T10:40:47.597Z,101974.97
2023-02-18T10:45:58.051Z,101980.69
2023-02-18T10:51:06.058Z,101979.47
2023-02-18T10:56:10.157Z,101977.66
2023-02-18T11:01:20.342Z,101980.00
2023-02-18T11:06:43.131Z,101986.06
2023-02-18T11:11:50.686Z,101991.38
2023-02-18T11:17:10.733Z,101969.81
2023-02-18T11:22:19.291Z,101984.22
2023-02-18T11:27:27.330Z,101980.50
2023-02-18T11:32:35.379Z,101953.50
2023-02-18T11:37:39.159Z,101966.06
2023-02-18T11:42:42.367Z,101968.09
2023-02-18T11:48:00.869Z,101972.09
2023-02-18T11:53:27.810Z,101970.88
2023-02-18T11:58:40.097Z,101974.25
2023-02-18T12:03:53.488Z,101967.06
2023-02-18T12:09:01.990Z,101967.88
2023-02-18T12:14:10.756Z,101966.22
2023-02-18T12:19:37.597Z,101976.13
2023-02-18T12:24:54.028Z,101945.91
2023-02-18T12:30:36.853Z,101946.72
2023-02-18T12:36:08.100Z,101941.63
2023-02-18T12:41:24.762Z,101961.06
2023-02-18T12:46:53.296Z,101952.88
2023-02-18T12:52:11.841Z,101971.81
2023-02-18T12:57:35.258Z,101969.53
2023-02-18T13:02:55.876Z,101913.66
2023-02-18T13:08:26.914Z,101957.19
2023-02-18T13:13:34.579Z,101954.03
2023-02-18T13:18:42.169Z,101950.34
2023-02-18T13:23:53.404Z,101957.03
2023-02-18T13:29:10.462Z,101952.50
2023-02-18T13:34:23.987Z,101959.00
2023-02-18T13:39:29.406Z,101964.41
2023-02-18T13:45:20.066Z,101965.00
2023-02-18T13:50:44.202Z,101968.00
2023-02-18T13:55:57.070Z,101967.84
2023-02-18T14:01:05.407Z,101963.25
2023-02-18T14:06:16.526Z,101966.63
2023-02-18T14:11:48.433Z,101967.13
2023-02-18T14:17:30.978Z,101976.41
2023-02-18T14:22:44.931Z,101954.28
2023-02-18T14:27:53.186Z,101971.28
2023-02-18T14:33:00.616Z,101971.06
2023-02-18T14:38:26.320Z,101984.66
2023-02-18T14:43:48.102Z,101985.63
2023-02-18T14:49:04.704Z,101976.63
2023-02-18T14:54:13.965Z,101991.56
2023-02-18T14:59:19.857Z,101980.66
2023-02-18T15:04:23.105Z,101976.72
2023-02-18T15:09:26.166Z,101972.53
2023-02-18T15:14:33.122Z,101964.41
2023-02-18T15:19:41.204Z,101971.09
2023-02-18T15:24:45.229Z,101970.88
2023-02-18T15:29:53.611Z,101974.25
2023-02-18T15:35:01.827Z,101972.81
2023-02-18T15:40:05.299Z,101967.28
2023-02-18T15:45:19.360Z,101959.28
2023-02-18T15:50:25.382Z,101962.69
2023-02-18T15:55:32.934Z,101951.84
2023-02-18T16:00:41.802Z,101961.03
2023-02-18T16:05:44.812Z,101941.25
2023-02-18T16:10:51.732Z,101968.84
2023-02-18T16:15:56.494Z,101964.38
2023-02-18T16:21:02.791Z,101960.47
2023-02-18T16:26:20.412Z,101966.47
2023-02-18T16:31:24.883Z,101961.72
2023-02-18T16:36:28.506Z,101966.00
2023-02-18T16:41:31.559Z,101964.06
2023-02-18T16:46:36.571Z,101963.00
2023-02-18T16:51:41.681Z,101942.22
2023-02-18T16:56:45.525Z,101962.59
2023-02-18T17:01:49.923Z,101971.94
2023-02-18T17:06:53.285Z,101964.06
2023-02-18T17:11:57.218Z,101951.84
2023-02-18T17:17:01.806Z,101950.44
2023-02-18T17:22:04.756Z,101964.44
2023-02-18T17:27:08.476Z,101958.69
2023-02-18T17:32:15.058Z,101963.19
2023-02-18T17:37:18.169Z,101964.69
2023-02-18T17:42:21.739Z,101957.44
2023-02-18T17:47:26.042Z,101951.13
2023-02-18T17:52:31.883Z,101948.22
2023-02-18T17:57:34.989Z,101941.81
2023-02-18T18:02:39.448Z,101968.81
2023-02-18T18:07:42.459Z,101954.78
2023-02-18T18:12:46.051Z,101958.25
2023-02-18T18:17:50.468Z,101956.34
2023-02-18T18:22:54.684Z,101970.19
2023-02-18T18:27:58.633Z,101962.59
2023-02-18T18:33:04.080Z,101958.72
2023-02-18T18:38:07.318Z,101955.31
2023-02-18T18:43:17.236Z,101950.78
2023-02-18T18:48:22.693Z,101954.66
2023-02-18T18:53:28.216Z,101958.16
2023-02-18T18:58:31.918Z,101960.16
2023-02-18T19:03:38.371Z,101961.88
2023-02-18T19:08:41.461Z,101944.22
2023-02-18T19:13:45.934Z,101953.94
2023-02-18T19:18:50.579Z,101938.91
2023-02-18T19:23:53.744Z,101926.09
2023-02-18T19:28:56.714Z,101930.69
2023-02-18T19:34:01.095Z,101921.00
2023-02-18T19:39:04.174Z,101937.09
2023-02-18T19:44:07.242Z,101930.78
2023-02-18T19:49:11.599Z,101916.03
2023-02-18T19:54:14.583Z,101912.31
2023-02-18T19:59:17.548Z,101905.47
2023-02-18T20:04:21.908Z,101899.75
2023-02-18T20:09:24.975Z,101902.25
2023-02-18T20:14:29.416Z,101877.81
2023-02-18T20:19:35.234Z,101880.34
2023-02-18T20:24:40.227Z,101876.00
2023-02-18T20:29:43.337Z,101866.91
2023-02-18T20:34:47.894Z,101886.28
2023-02-18T20:39:50.906Z,101875.66
2023-02-18T20:44:53.941Z,101885.13
2023-02-18T20:49:58.297Z,101888.47
2023-02-18T20:55:01.328Z,101887.28
2023-02-18T21:00:05.974Z,101885.50
2023-02-18T21:05:10.464Z,101852.19
2023-02-18T21:10:13.447Z,101862.63
2023-02-18T21:15:16.660Z,101864.16
2023-02-18T21:20:21.415Z,101861.63
2023-02-18T21:25:24.387Z,101864.34
2023-02-18T21:30:28.126Z,101866.97
2023-02-18T21:35:35.819Z,101842.09
2023-02-18T21:40:38.917Z,101840.31
2023-02-18T21:45:42.019Z,101833.16
2023-02-18T21:50:46.471Z,101835.50
2023-02-18T21:56:02.946Z,101845.22
2023-02-18T22:01:06.857Z,101870.53
2023-02-18T22:06:11.694Z,101857.50
2023-02-18T22:11:14.903Z,101858.22
2023-02-18T22:16:17.950Z,101858.97
2023-02-18T22:21:23.570Z,101862.59
2023-02-18T22:26:26.612Z,101837.91
2023-02-18T22:31:31.940Z,101854.72
2023-02-18T22:36:36.410Z,101841.69
2023-02-18T22:41:39.854Z,101835.91
2023-02-18T22:46:42.989Z,101840.34
2023-02-18T22:51:47.314Z,101842.78
2023-02-18T22:56:50.589Z,101834.19
2023-02-18T23:01:53.631Z,101827.84
2023-02-18T23:06:58.019Z,101844.38
2023-02-18T23:12:01.424Z,101842.75
2023-02-18T23:17:14.227Z,101846.28
2023-02-18T23:22:20.702Z,101839.22
2023-02-18T23:27:24.517Z,101841.50
2023-02-18T23:32:27.896Z,101827.84
2023-02-18T23:37:49.560Z,101850.41
2023-02-18T23:42:54.426Z,101823.56
2023-02-18T23:47:57.548Z,101835.88
2023-02-18T23:53:01.962Z,101837.31
2023-02-18T23:58:05.140Z,101829.34
